sensor_id;sensor_type;location;lat;lon;timestamp;P1;durP1;ratioP1;P2;durP2;ratioP2
25917;SDS011;13899;51.174;4.456;2023-04-06T00:01:54;29.33;;;17.13;;
25917;SDS011;13899;51.174;4.456;2023-04-06T00:04:20;22.63;;;17.17;;
25917;SDS011;13899;51.174;4.456;2023-04-06T00:06:46;14.77;;;11.35;;
25917;SDS011;13899;51.174;4.456;2023-04-06T00:09:11;21.63;;;15.85;;
25917;SDS011;13899;51.174;4.456;2023-04-06T00:11:37;28.10;;;17.60;;
25917;SDS011;13899;51.174;4.456;2023-04-06T00:14:04;21.50;;;15.88;;
25917;SDS011;13899;51.174;4.456;2023-04-06T00:16:30;22.15;;;15.60;;
25917;SDS011;13899;51.174;4.456;2023-04-06T00:18:55;23.40;;;16.77;;
25917;SDS011;13899;51.174;4.456;2023-04-06T00:21:21;31.92;;;17.38;;
25917;SDS011;13899;51.174;4.456;2023-04-06T00:23:47;21.98;;;16.33;;
25917;SDS011;13899;51.174;4.456;2023-04-06T00:26:12;20.08;;;15.40;;
25917;SDS011;13899;51.174;4.456;2023-04-06T00:28:38;20.90;;;15.27;;
25917;SDS011;13899;51.174;4.456;2023-04-06T00:31:04;22.73;;;16.08;;
25917;SDS011;13899;51.174;4.456;2023-04-06T00:33:30;16.37;;;11.53;;
25917;SDS011;13899;51.174;4.456;2023-04-06T00:35:55;29.30;;;16.63;;
25917;SDS011;13899;51.174;4.456;2023-04-06T00:38:21;22.77;;;16.65;;
25917;SDS011;13899;51.174;4.456;2023-04-06T00:40:47;17.83;;;15.90;;
25917;SDS011;13899;51.174;4.456;2023-04-06T00:43:13;21.02;;;14.80;;
25917;SDS011;13899;51.174;4.456;2023-04-06T00:45:39;19.88;;;14.90;;
25917;SDS011;13899;51.174;4.456;2023-04-06T00:48:06;22.95;;;15.27;;
25917;SDS011;13899;51.174;4.456;2023-04-06T00:50:32;21.25;;;15.82;;
25917;SDS011;13899;51.174;4.456;2023-04-06T00:52:58;24.20;;;15.13;;
25917;SDS011;13899;51.174;4.456;2023-04-06T00:55:25;22.65;;;16.20;;
25917;SDS011;13899;51.174;4.456;2023-04-06T00:57:54;17.05;;;14.35;;
25917;SDS011;13899;51.174;4.456;2023-04-06T01:00:23;21.05;;;15.30;;
25917;SDS011;13899;51.174;4.456;2023-04-06T01:02:49;22.40;;;15.13;;
25917;SDS011;13899;51.174;4.456;2023-04-06T01:05:15;21.75;;;14.88;;
25917;SDS011;13899;51.174;4.456;2023-04-06T01:07:40;21.65;;;15.95;;
25917;SDS011;13899;51.174;4.456;2023-04-06T01:10:06;22.27;;;15.27;;
25917;SDS011;13899;51.174;4.456;2023-04-06T01:12:32;17.83;;;13.80;;
25917;SDS011;13899;51.174;4.456;2023-04-06T01:14:58;16.02;;;14.35;;
25917;SDS011;13899;51.174;4.456;2023-04-06T01:17:24;18.35;;;14.52;;
25917;SDS011;13899;51.174;4.456;2023-04-06T01:19:50;18.40;;;14.30;;
25917;SDS011;13899;51.174;4.456;2023-04-06T01:22:18;17.63;;;13.63;;
25917;SDS011;13899;51.174;4.456;2023-04-06T01:24:44;22.48;;;15.00;;
25917;SDS011;13899;51.174;4.456;2023-04-06T01:27:11;18.38;;;13.77;;
25917;SDS011;13899;51.174;4.456;2023-04-06T01:29:37;19.58;;;13.55;;
25917;SDS011;13899;51.174;4.456;2023-04-06T01:32:06;16.95;;;13.20;;
25917;SDS011;13899;51.174;4.456;2023-04-06T01:34:32;20.65;;;14.25;;
25917;SDS011;13899;51.174;4.456;2023-04-06T01:36:58;19.88;;;15.02;;
25917;SDS011;13899;51.174;4.456;2023-04-06T01:39:24;17.10;;;14.27;;
25917;SDS011;13899;51.174;4.456;2023-04-06T01:41:51;18.15;;;13.77;;
25917;SDS011;13899;51.174;4.456;2023-04-06T01:44:17;20.00;;;14.07;;
25917;SDS011;13899;51.174;4.456;2023-04-06T01:49:09;17.63;;;13.10;;
25917;SDS011;13899;51.174;4.456;2023-04-06T01:51:35;15.02;;;13.02;;
25917;SDS011;13899;51.174;4.456;2023-04-06T01:54:00;16.52;;;13.18;;
25917;SDS011;13899;51.174;4.456;2023-04-06T01:56:26;19.77;;;14.07;;
25917;SDS011;13899;51.174;4.456;2023-04-06T01:58:51;16.05;;;13.55;;
25917;SDS011;13899;51.174;4.456;2023-04-06T02:01:17;15.23;;;12.77;;
25917;SDS011;13899;51.174;4.456;2023-04-06T02:03:43;16.90;;;12.68;;
25917;SDS011;13899;51.174;4.456;2023-04-06T02:06:08;16.80;;;13.00;;
25917;SDS011;13899;51.174;4.456;2023-04-06T02:08:34;17.98;;;13.80;;
25917;SDS011;13899;51.174;4.456;2023-04-06T02:11:00;18.57;;;14.07;;
25917;SDS011;13899;51.174;4.456;2023-04-06T02:13:26;16.08;;;12.75;;
25917;SDS011;13899;51.174;4.456;2023-04-06T02:15:51;15.50;;;10.97;;
25917;SDS011;13899;51.174;4.456;2023-04-06T02:18:17;15.77;;;13.18;;
25917;SDS011;13899;51.174;4.456;2023-04-06T02:20:43;19.87;;;13.40;;
25917;SDS011;13899;51.174;4.456;2023-04-06T02:23:09;15.05;;;13.07;;
25917;SDS011;13899;51.174;4.456;2023-04-06T02:25:36;17.63;;;13.95;;
25917;SDS011;13899;51.174;4.456;2023-04-06T02:28:01;18.90;;;14.43;;
25917;SDS011;13899;51.174;4.456;2023-04-06T02:30:27;17.80;;;13.55;;
25917;SDS011;13899;51.174;4.456;2023-04-06T02:32:54;14.05;;;12.43;;
25917;SDS011;13899;51.174;4.456;2023-04-06T02:35:19;24.38;;;13.80;;
25917;SDS011;13899;51.174;4.456;2023-04-06T02:37:45;24.07;;;14.03;;
25917;SDS011;13899;51.174;4.456;2023-04-06T02:40:10;21.33;;;13.27;;
25917;SDS011;13899;51.174;4.456;2023-04-06T02:42:36;19.10;;;14.38;;
25917;SDS011;13899;51.174;4.456;2023-04-06T02:45:02;14.82;;;12.85;;
25917;SDS011;13899;51.174;4.456;2023-04-06T02:47:29;18.60;;;14.02;;
25917;SDS011;13899;51.174;4.456;2023-04-06T02:49:54;16.80;;;14.07;;
25917;SDS011;13899;51.174;4.456;2023-04-06T02:52:20;15.57;;;12.82;;
25917;SDS011;13899;51.174;4.456;2023-04-06T02:54:46;21.80;;;13.93;;
25917;SDS011;13899;51.174;4.456;2023-04-06T02:57:11;17.07;;;13.57;;
25917;SDS011;13899;51.174;4.456;2023-04-06T02:59:37;18.83;;;13.52;;
25917;SDS011;13899;51.174;4.456;2023-04-06T03:02:03;19.95;;;13.55;;
25917;SDS011;13899;51.174;4.456;2023-04-06T03:04:28;19.23;;;13.35;;
25917;SDS011;13899;51.174;4.456;2023-04-06T03:06:54;14.77;;;13.18;;
25917;SDS011;13899;51.174;4.456;2023-04-06T03:09:20;15.93;;;13.10;;
25917;SDS011;13899;51.174;4.456;2023-04-06T03:11:46;19.70;;;13.67;;
25917;SDS011;13899;51.174;4.456;2023-04-06T03:14:11;12.82;;;9.63;;
25917;SDS011;13899;51.174;4.456;2023-04-06T03:16:37;22.77;;;13.60;;
25917;SDS011;13899;51.174;4.456;2023-04-06T03:19:03;14.63;;;12.98;;
25917;SDS011;13899;51.174;4.456;2023-04-06T03:21:28;19.23;;;12.70;;
25917;SDS011;13899;51.174;4.456;2023-04-06T03:23:54;15.70;;;12.02;;
25917;SDS011;13899;51.174;4.456;2023-04-06T03:26:20;19.67;;;13.05;;
25917;SDS011;13899;51.174;4.456;2023-04-06T03:31:12;20.87;;;13.30;;
25917;SDS011;13899;51.174;4.456;2023-04-06T03:33:38;18.50;;;13.00;;
25917;SDS011;13899;51.174;4.456;2023-04-06T03:36:03;16.37;;;12.87;;
25917;SDS011;13899;51.174;4.456;2023-04-06T03:38:30;19.27;;;12.70;;
25917;SDS011;13899;51.174;4.456;2023-04-06T03:40:55;16.63;;;13.15;;
25917;SDS011;13899;51.174;4.456;2023-04-06T03:43:21;14.80;;;12.45;;
25917;SDS011;13899;51.174;4.456;2023-04-06T03:45:46;14.05;;;12.50;;
25917;SDS011;13899;51.174;4.456;2023-04-06T03:48:12;15.63;;;13.40;;
25917;SDS011;13899;51.174;4.456;2023-04-06T03:50:38;17.13;;;13.27;;
25917;SDS011;13899;51.174;4.456;2023-04-06T03:53:03;16.13;;;12.98;;
25917;SDS011;13899;51.174;4.456;2023-04-06T03:55:29;21.03;;;13.83;;
25917;SDS011;13899;51.174;4.456;2023-04-06T03:57:55;20.98;;;12.80;;
25917;SDS011;13899;51.174;4.456;2023-04-06T04:00:20;22.73;;;12.90;;
25917;SDS011;13899;51.174;4.456;2023-04-06T04:02:46;19.20;;;14.37;;
25917;SDS011;13899;51.174;4.456;2023-04-06T04:05:12;15.93;;;12.57;;
25917;SDS011;13899;51.174;4.456;2023-04-06T04:07:37;19.52;;;13.32;;
25917;SDS011;13899;51.174;4.456;2023-04-06T04:10:03;22.08;;;13.57;;
25917;SDS011;13899;51.174;4.456;2023-04-06T04:12:29;16.30;;;12.93;;
25917;SDS011;13899;51.174;4.456;2023-04-06T04:14:55;15.75;;;9.82;;
25917;SDS011;13899;51.174;4.456;2023-04-06T04:17:21;19.02;;;13.55;;
25917;SDS011;13899;51.174;4.456;2023-04-06T04:19:47;16.23;;;12.30;;
25917;SDS011;13899;51.174;4.456;2023-04-06T04:22:12;17.27;;;13.07;;
25917;SDS011;13899;51.174;4.456;2023-04-06T04:24:38;14.85;;;10.73;;
25917;SDS011;13899;51.174;4.456;2023-04-06T04:27:03;16.95;;;12.38;;
25917;SDS011;13899;51.174;4.456;2023-04-06T04:29:30;19.27;;;12.88;;
25917;SDS011;13899;51.174;4.456;2023-04-06T04:31:55;22.67;;;13.45;;
25917;SDS011;13899;51.174;4.456;2023-04-06T04:34:21;18.88;;;12.57;;
25917;SDS011;13899;51.174;4.456;2023-04-06T04:36:50;21.88;;;13.02;;
25917;SDS011;13899;51.174;4.456;2023-04-06T04:39:16;19.42;;;12.88;;
25917;SDS011;13899;51.174;4.456;2023-04-06T04:41:41;16.03;;;12.87;;
25917;SDS011;13899;51.174;4.456;2023-04-06T04:44:07;19.17;;;13.75;;
25917;SDS011;13899;51.174;4.456;2023-04-06T04:46:33;20.80;;;14.45;;
25917;SDS011;13899;51.174;4.456;2023-04-06T04:48:58;21.10;;;13.40;;
25917;SDS011;13899;51.174;4.456;2023-04-06T04:51:24;19.15;;;13.40;;
25917;SDS011;13899;51.174;4.456;2023-04-06T04:53:50;17.73;;;13.38;;
25917;SDS011;13899;51.174;4.456;2023-04-06T04:56:15;18.15;;;13.02;;
25917;SDS011;13899;51.174;4.456;2023-04-06T04:58:41;21.00;;;13.27;;
25917;SDS011;13899;51.174;4.456;2023-04-06T05:01:07;19.92;;;14.07;;
25917;SDS011;13899;51.174;4.456;2023-04-06T05:03:33;20.20;;;13.25;;
25917;SDS011;13899;51.174;4.456;2023-04-06T05:05:59;16.55;;;13.50;;
25917;SDS011;13899;51.174;4.456;2023-04-06T05:08:24;16.35;;;13.55;;
25917;SDS011;13899;51.174;4.456;2023-04-06T05:10:50;24.33;;;14.55;;
25917;SDS011;13899;51.174;4.456;2023-04-06T05:13:16;16.98;;;12.75;;
25917;SDS011;13899;51.174;4.456;2023-04-06T05:15:42;16.98;;;15.18;;
25917;SDS011;13899;51.174;4.456;2023-04-06T05:18:07;25.65;;;15.43;;
25917;SDS011;13899;51.174;4.456;2023-04-06T05:20:34;18.20;;;13.90;;
25917;SDS011;13899;51.174;4.456;2023-04-06T05:23:00;23.67;;;14.23;;
25917;SDS011;13899;51.174;4.456;2023-04-06T05:25:26;17.15;;;13.65;;
25917;SDS011;13899;51.174;4.456;2023-04-06T05:27:52;22.17;;;14.93;;
25917;SDS011;13899;51.174;4.456;2023-04-06T05:30:18;23.25;;;14.40;;
25917;SDS011;13899;51.174;4.456;2023-04-06T05:32:45;21.15;;;14.20;;
25917;SDS011;13899;51.174;4.456;2023-04-06T05:35:11;21.20;;;13.77;;
25917;SDS011;13899;51.174;4.456;2023-04-06T05:37:37;20.03;;;14.37;;
25917;SDS011;13899;51.174;4.456;2023-04-06T05:40:04;16.20;;;14.40;;
25917;SDS011;13899;51.174;4.456;2023-04-06T05:43:03;19.83;;;14.27;;
25917;SDS011;13899;51.174;4.456;2023-04-06T05:45:22;25.30;;;15.15;;
25917;SDS011;13899;51.174;4.456;2023-04-06T05:47:48;19.48;;;15.27;;
25917;SDS011;13899;51.174;4.456;2023-04-06T05:50:14;21.02;;;14.77;;
25917;SDS011;13899;51.174;4.456;2023-04-06T05:52:40;20.33;;;14.85;;
25917;SDS011;13899;51.174;4.456;2023-04-06T05:55:08;24.00;;;15.20;;
25917;SDS011;13899;51.174;4.456;2023-04-06T05:57:34;22.67;;;15.15;;
25917;SDS011;13899;51.174;4.456;2023-04-06T06:00:00;21.83;;;15.20;;
25917;SDS011;13899;51.174;4.456;2023-04-06T06:02:26;20.17;;;16.20;;
25917;SDS011;13899;51.174;4.456;2023-04-06T06:04:51;21.05;;;12.13;;
25917;SDS011;13899;51.174;4.456;2023-04-06T06:07:17;22.42;;;15.38;;
25917;SDS011;13899;51.174;4.456;2023-04-06T06:09:42;19.55;;;15.88;;
25917;SDS011;13899;51.174;4.456;2023-04-06T06:12:08;21.90;;;16.27;;
25917;SDS011;13899;51.174;4.456;2023-04-06T06:14:34;28.90;;;16.60;;
25917;SDS011;13899;51.174;4.456;2023-04-06T06:17:00;21.80;;;16.80;;
25917;SDS011;13899;51.174;4.456;2023-04-06T06:19:25;23.63;;;17.43;;
25917;SDS011;13899;51.174;4.456;2023-04-06T06:21:51;23.97;;;17.50;;
25917;SDS011;13899;51.174;4.456;2023-04-06T06:24:17;25.58;;;17.60;;
25917;SDS011;13899;51.174;4.456;2023-04-06T06:26:42;22.33;;;17.60;;
25917;SDS011;13899;51.174;4.456;2023-04-06T06:29:08;25.17;;;18.90;;
25917;SDS011;13899;51.174;4.456;2023-04-06T06:31:34;24.40;;;18.60;;
25917;SDS011;13899;51.174;4.456;2023-04-06T06:34:00;30.00;;;19.30;;
25917;SDS011;13899;51.174;4.456;2023-04-06T06:36:26;28.00;;;20.08;;
25917;SDS011;13899;51.174;4.456;2023-04-06T06:38:52;32.27;;;20.80;;
25917;SDS011;13899;51.174;4.456;2023-04-06T06:41:18;34.35;;;21.27;;
25917;SDS011;13899;51.174;4.456;2023-04-06T06:43:44;27.35;;;21.67;;
25917;SDS011;13899;51.174;4.456;2023-04-06T06:46:10;35.57;;;21.60;;
25917;SDS011;13899;51.174;4.456;2023-04-06T06:48:36;29.88;;;20.00;;
25917;SDS011;13899;51.174;4.456;2023-04-06T06:51:01;35.90;;;21.37;;
25917;SDS011;13899;51.174;4.456;2023-04-06T06:53:27;27.17;;;20.67;;
25917;SDS011;13899;51.174;4.456;2023-04-06T06:55:55;29.30;;;19.90;;
25917;SDS011;13899;51.174;4.456;2023-04-06T06:58:21;32.45;;;21.10;;
25917;SDS011;13899;51.174;4.456;2023-04-06T07:00:46;34.40;;;21.33;;
25917;SDS011;13899;51.174;4.456;2023-04-06T07:03:12;33.15;;;21.48;;
25917;SDS011;13899;51.174;4.456;2023-04-06T07:05:38;33.20;;;22.33;;
25917;SDS011;13899;51.174;4.456;2023-04-06T07:08:04;32.93;;;22.60;;
25917;SDS011;13899;51.174;4.456;2023-04-06T07:10:30;29.40;;;22.10;;
25917;SDS011;13899;51.174;4.456;2023-04-06T07:12:56;32.00;;;21.83;;
25917;SDS011;13899;51.174;4.456;2023-04-06T07:15:21;29.83;;;21.43;;
25917;SDS011;13899;51.174;4.456;2023-04-06T07:17:47;30.48;;;21.65;;
25917;SDS011;13899;51.174;4.456;2023-04-06T07:20:13;36.03;;;23.37;;
25917;SDS011;13899;51.174;4.456;2023-04-06T07:22:40;33.10;;;21.45;;
25917;SDS011;13899;51.174;4.456;2023-04-06T07:27:32;31.17;;;20.85;;
25917;SDS011;13899;51.174;4.456;2023-04-06T07:30:03;37.05;;;21.35;;
25917;SDS011;13899;51.174;4.456;2023-04-06T07:32:28;31.07;;;20.43;;
25917;SDS011;13899;51.174;4.456;2023-04-06T07:34:55;49.85;;;23.42;;
25917;SDS011;13899;51.174;4.456;2023-04-06T07:37:21;49.22;;;21.95;;
25917;SDS011;13899;51.174;4.456;2023-04-06T07:39:48;37.08;;;22.05;;
25917;SDS011;13899;51.174;4.456;2023-04-06T07:42:14;41.50;;;20.33;;
25917;SDS011;13899;51.174;4.456;2023-04-06T07:44:39;36.13;;;19.73;;
25917;SDS011;13899;51.174;4.456;2023-04-06T07:47:06;46.15;;;19.60;;
25917;SDS011;13899;51.174;4.456;2023-04-06T07:49:32;43.90;;;20.53;;
25917;SDS011;13899;51.174;4.456;2023-04-06T07:51:58;47.90;;;18.33;;
25917;SDS011;13899;51.174;4.456;2023-04-06T07:54:23;48.15;;;20.75;;
25917;SDS011;13899;51.174;4.456;2023-04-06T07:56:49;34.70;;;17.25;;
25917;SDS011;13899;51.174;4.456;2023-04-06T07:59:15;36.33;;;17.63;;
25917;SDS011;13899;51.174;4.456;2023-04-06T08:04:07;40.00;;;18.53;;
25917;SDS011;13899;51.174;4.456;2023-04-06T08:06:33;55.47;;;19.60;;
25917;SDS011;13899;51.174;4.456;2023-04-06T08:09:02;29.17;;;14.10;;
25917;SDS011;13899;51.174;4.456;2023-04-06T08:11:28;40.38;;;18.40;;
25917;SDS011;13899;51.174;4.456;2023-04-06T08:13:54;55.40;;;19.42;;
25917;SDS011;13899;51.174;4.456;2023-04-06T08:16:21;21.52;;;14.60;;
25917;SDS011;13899;51.174;4.456;2023-04-06T08:18:47;20.73;;;13.83;;
25917;SDS011;13899;51.174;4.456;2023-04-06T08:21:14;15.83;;;12.73;;
25917;SDS011;13899;51.174;4.456;2023-04-06T08:23:41;17.30;;;13.65;;
25917;SDS011;13899;51.174;4.456;2023-04-06T08:26:07;18.33;;;12.57;;
25917;SDS011;13899;51.174;4.456;2023-04-06T08:28:32;19.15;;;14.05;;
25917;SDS011;13899;51.174;4.456;2023-04-06T08:31:02;19.73;;;13.45;;
25917;SDS011;13899;51.174;4.456;2023-04-06T08:33:31;21.10;;;13.98;;
25917;SDS011;13899;51.174;4.456;2023-04-06T08:36:06;18.45;;;12.88;;
25917;SDS011;13899;51.174;4.456;2023-04-06T08:38:33;17.50;;;14.10;;
25917;SDS011;13899;51.174;4.456;2023-04-06T08:40:58;18.83;;;13.53;;
25917;SDS011;13899;51.174;4.456;2023-04-06T08:43:24;17.58;;;13.15;;
25917;SDS011;13899;51.174;4.456;2023-04-06T08:45:53;15.75;;;12.30;;
25917;SDS011;13899;51.174;4.456;2023-04-06T08:48:18;17.77;;;12.27;;
25917;SDS011;13899;51.174;4.456;2023-04-06T08:50:45;14.88;;;11.27;;
25917;SDS011;13899;51.174;4.456;2023-04-06T08:53:12;17.00;;;12.17;;
25917;SDS011;13899;51.174;4.456;2023-04-06T08:55:42;14.77;;;10.60;;
25917;SDS011;13899;51.174;4.456;2023-04-06T08:58:13;13.82;;;10.10;;
25917;SDS011;13899;51.174;4.456;2023-04-06T09:03:05;13.30;;;9.47;;
25917;SDS011;13899;51.174;4.456;2023-04-06T09:05:32;9.40;;;8.35;;
25917;SDS011;13899;51.174;4.456;2023-04-06T09:07:57;9.40;;;7.50;;
25917;SDS011;13899;51.174;4.456;2023-04-06T09:10:23;7.57;;;6.57;;
25917;SDS011;13899;51.174;4.456;2023-04-06T09:12:50;10.15;;;7.68;;
25917;SDS011;13899;51.174;4.456;2023-04-06T09:15:20;9.40;;;6.93;;
25917;SDS011;13899;51.174;4.456;2023-04-06T09:17:46;9.48;;;7.40;;
25917;SDS011;13899;51.174;4.456;2023-04-06T09:20:12;9.80;;;6.67;;
25917;SDS011;13899;51.174;4.456;2023-04-06T09:22:39;6.67;;;5.97;;
25917;SDS011;13899;51.174;4.456;2023-04-06T09:25:07;7.80;;;6.63;;
25917;SDS011;13899;51.174;4.456;2023-04-06T09:27:43;7.72;;;6.88;;
25917;SDS011;13899;51.174;4.456;2023-04-06T09:30:10;9.50;;;6.63;;
25917;SDS011;13899;51.174;4.456;2023-04-06T09:32:54;7.20;;;6.15;;
25917;SDS011;13899;51.174;4.456;2023-04-06T09:35:21;8.93;;;7.30;;
25917;SDS011;13899;51.174;4.456;2023-04-06T09:37:51;8.93;;;7.72;;
25917;SDS011;13899;51.174;4.456;2023-04-06T09:40:17;11.80;;;8.32;;
25917;SDS011;13899;51.174;4.456;2023-04-06T09:42:47;8.93;;;7.93;;
25917;SDS011;13899;51.174;4.456;2023-04-06T09:45:15;12.15;;;8.32;;
25917;SDS011;13899;51.174;4.456;2023-04-06T09:47:44;9.63;;;8.40;;
25917;SDS011;13899;51.174;4.456;2023-04-06T09:50:11;10.38;;;8.75;;
25917;SDS011;13899;51.174;4.456;2023-04-06T09:52:48;9.45;;;8.50;;
25917;SDS011;13899;51.174;4.456;2023-04-06T09:55:34;9.63;;;8.20;;
25917;SDS011;13899;51.174;4.456;2023-04-06T09:58:05;10.18;;;9.18;;
25917;SDS011;13899;51.174;4.456;2023-04-06T10:03:33;13.15;;;8.95;;
25917;SDS011;13899;51.174;4.456;2023-04-06T10:06:13;12.18;;;10.00;;
25917;SDS011;13899;51.174;4.456;2023-04-06T10:08:42;11.82;;;9.48;;
25917;SDS011;13899;51.174;4.456;2023-04-06T10:11:10;13.43;;;9.50;;
25917;SDS011;13899;51.174;4.456;2023-04-06T10:13:36;12.33;;;10.60;;
25917;SDS011;13899;51.174;4.456;2023-04-06T10:16:05;14.63;;;10.23;;
25917;SDS011;13899;51.174;4.456;2023-04-06T10:18:32;12.35;;;9.93;;
25917;SDS011;13899;51.174;4.456;2023-04-06T10:21:11;12.17;;;10.47;;
25917;SDS011;13899;51.174;4.456;2023-04-06T10:26:17;11.07;;;9.90;;
25917;SDS011;13899;51.174;4.456;2023-04-06T10:28:46;12.32;;;10.35;;
25917;SDS011;13899;51.174;4.456;2023-04-06T10:31:14;13.50;;;10.63;;
25917;SDS011;13899;51.174;4.456;2023-04-06T10:33:55;15.35;;;12.02;;
25917;SDS011;13899;51.174;4.456;2023-04-06T10:36:25;15.57;;;11.07;;
25917;SDS011;13899;51.174;4.456;2023-04-06T10:39:00;12.82;;;11.18;;
25917;SDS011;13899;51.174;4.456;2023-04-06T10:44:06;19.92;;;11.15;;
25917;SDS011;13899;51.174;4.456;2023-04-06T10:46:33;17.90;;;11.10;;
25917;SDS011;13899;51.174;4.456;2023-04-06T10:49:09;14.40;;;10.98;;
25917;SDS011;13899;51.174;4.456;2023-04-06T10:51:40;21.20;;;12.30;;
25917;SDS011;13899;51.174;4.456;2023-04-06T10:54:07;15.73;;;12.43;;
25917;SDS011;13899;51.174;4.456;2023-04-06T10:56:38;12.85;;;11.52;;
25917;SDS011;13899;51.174;4.456;2023-04-06T10:59:28;18.40;;;11.50;;
25917;SDS011;13899;51.174;4.456;2023-04-06T11:02:18;19.17;;;13.15;;
25917;SDS011;13899;51.174;4.456;2023-04-06T11:04:57;14.18;;;12.15;;
25917;SDS011;13899;51.174;4.456;2023-04-06T11:07:40;14.52;;;11.38;;
25917;SDS011;13899;51.174;4.456;2023-04-06T11:10:08;15.85;;;13.00;;
25917;SDS011;13899;51.174;4.456;2023-04-06T11:12:37;14.88;;;12.05;;
25917;SDS011;13899;51.174;4.456;2023-04-06T11:15:03;14.67;;;12.20;;
25917;SDS011;13899;51.174;4.456;2023-04-06T11:17:31;16.70;;;12.20;;
25917;SDS011;13899;51.174;4.456;2023-04-06T11:20:01;16.58;;;12.27;;
25917;SDS011;13899;51.174;4.456;2023-04-06T11:22:28;16.10;;;12.93;;
25917;SDS011;13899;51.174;4.456;2023-04-06T11:25:06;16.33;;;11.93;;
25917;SDS011;13899;51.174;4.456;2023-04-06T11:27:35;14.07;;;12.23;;
25917;SDS011;13899;51.174;4.456;2023-04-06T11:30:02;14.77;;;12.67;;
25917;SDS011;13899;51.174;4.456;2023-04-06T11:32:28;17.13;;;13.35;;
25917;SDS011;13899;51.174;4.456;2023-04-06T11:34:54;11.43;;;10.27;;
25917;SDS011;13899;51.174;4.456;2023-04-06T11:37:25;15.27;;;13.40;;
25917;SDS011;13899;51.174;4.456;2023-04-06T11:39:52;16.70;;;13.02;;
25917;SDS011;13899;51.174;4.456;2023-04-06T11:42:27;16.50;;;13.65;;
25917;SDS011;13899;51.174;4.456;2023-04-06T11:47:29;17.20;;;11.90;;
25917;SDS011;13899;51.174;4.456;2023-04-06T11:50:05;16.10;;;13.32;;
25917;SDS011;13899;51.174;4.456;2023-04-06T11:52:33;15.07;;;13.55;;
25917;SDS011;13899;51.174;4.456;2023-04-06T11:55:09;18.35;;;14.30;;
25917;SDS011;13899;51.174;4.456;2023-04-06T11:57:39;16.63;;;14.15;;
25917;SDS011;13899;51.174;4.456;2023-04-06T12:00:06;18.60;;;15.35;;
25917;SDS011;13899;51.174;4.456;2023-04-06T12:02:35;23.45;;;13.90;;
25917;SDS011;13899;51.174;4.456;2023-04-06T12:07:28;16.95;;;14.15;;
25917;SDS011;13899;51.174;4.456;2023-04-06T12:09:55;15.50;;;13.80;;
25917;SDS011;13899;51.174;4.456;2023-04-06T12:12:21;15.77;;;13.07;;
25917;SDS011;13899;51.174;4.456;2023-04-06T12:14:46;17.50;;;14.40;;
25917;SDS011;13899;51.174;4.456;2023-04-06T12:17:12;16.87;;;14.83;;
25917;SDS011;13899;51.174;4.456;2023-04-06T12:19:38;18.77;;;14.02;;
25917;SDS011;13899;51.174;4.456;2023-04-06T12:22:04;16.00;;;14.20;;
25917;SDS011;13899;51.174;4.456;2023-04-06T12:24:30;15.40;;;13.43;;
25917;SDS011;13899;51.174;4.456;2023-04-06T12:26:56;18.35;;;14.43;;
25917;SDS011;13899;51.174;4.456;2023-04-06T12:29:22;14.82;;;13.38;;
25917;SDS011;13899;51.174;4.456;2023-04-06T12:31:49;15.70;;;13.13;;
25917;SDS011;13899;51.174;4.456;2023-04-06T12:34:16;15.82;;;13.25;;
25917;SDS011;13899;51.174;4.456;2023-04-06T12:36:41;13.43;;;12.13;;
25917;SDS011;13899;51.174;4.456;2023-04-06T12:39:07;13.77;;;12.47;;
25917;SDS011;13899;51.174;4.456;2023-04-06T12:41:33;15.47;;;13.87;;
25917;SDS011;13899;51.174;4.456;2023-04-06T12:43:59;15.75;;;14.15;;
25917;SDS011;13899;51.174;4.456;2023-04-06T12:46:25;15.18;;;13.63;;
25917;SDS011;13899;51.174;4.456;2023-04-06T12:48:51;15.10;;;13.63;;
25917;SDS011;13899;51.174;4.456;2023-04-06T12:51:18;15.65;;;14.00;;
25917;SDS011;13899;51.174;4.456;2023-04-06T12:53:44;15.15;;;13.68;;
25917;SDS011;13899;51.174;4.456;2023-04-06T12:56:14;16.98;;;14.40;;
25917;SDS011;13899;51.174;4.456;2023-04-06T12:59:01;14.23;;;12.75;;
25917;SDS011;13899;51.174;4.456;2023-04-06T13:01:27;15.37;;;13.70;;
25917;SDS011;13899;51.174;4.456;2023-04-06T13:03:55;16.83;;;14.50;;
25917;SDS011;13899;51.174;4.456;2023-04-06T13:08:52;17.08;;;13.80;;
25917;SDS011;13899;51.174;4.456;2023-04-06T13:11:18;15.30;;;13.83;;
25917;SDS011;13899;51.174;4.456;2023-04-06T13:13:46;14.90;;;13.30;;
25917;SDS011;13899;51.174;4.456;2023-04-06T13:16:12;14.93;;;13.57;;
25917;SDS011;13899;51.174;4.456;2023-04-06T13:18:38;16.07;;;13.17;;
25917;SDS011;13899;51.174;4.456;2023-04-06T13:21:04;15.93;;;13.85;;
25917;SDS011;13899;51.174;4.456;2023-04-06T13:23:30;15.05;;;13.55;;
25917;SDS011;13899;51.174;4.456;2023-04-06T13:25:57;15.20;;;13.67;;
25917;SDS011;13899;51.174;4.456;2023-04-06T13:28:29;14.18;;;12.43;;
25917;SDS011;13899;51.174;4.456;2023-04-06T13:30:57;12.82;;;11.52;;
25917;SDS011;13899;51.174;4.456;2023-04-06T13:33:28;15.82;;;14.18;;
25917;SDS011;13899;51.174;4.456;2023-04-06T13:35:55;15.15;;;13.65;;
25917;SDS011;13899;51.174;4.456;2023-04-06T13:38:21;13.57;;;12.17;;
25917;SDS011;13899;51.174;4.456;2023-04-06T13:40:48;14.18;;;12.73;;
25917;SDS011;13899;51.174;4.456;2023-04-06T13:43:14;15.07;;;13.60;;
25917;SDS011;13899;51.174;4.456;2023-04-06T13:45:41;15.02;;;13.52;;
25917;SDS011;13899;51.174;4.456;2023-04-06T13:48:23;15.00;;;13.48;;
25917;SDS011;13899;51.174;4.456;2023-04-06T13:50:50;14.90;;;13.50;;
25917;SDS011;13899;51.174;4.456;2023-04-06T13:53:16;15.70;;;14.20;;
25917;SDS011;13899;51.174;4.456;2023-04-06T13:55:42;15.00;;;13.60;;
25917;SDS011;13899;51.174;4.456;2023-04-06T13:58:07;17.00;;;15.27;;
25917;SDS011;13899;51.174;4.456;2023-04-06T14:00:33;17.15;;;15.38;;
25917;SDS011;13899;51.174;4.456;2023-04-06T14:03:03;16.30;;;14.75;;
25917;SDS011;13899;51.174;4.456;2023-04-06T14:05:31;16.52;;;14.82;;
25917;SDS011;13899;51.174;4.456;2023-04-06T14:07:58;17.15;;;15.45;;
25917;SDS011;13899;51.174;4.456;2023-04-06T14:10:23;18.50;;;16.30;;
25917;SDS011;13899;51.174;4.456;2023-04-06T14:12:52;17.52;;;15.90;;
25917;SDS011;13899;51.174;4.456;2023-04-06T14:15:17;17.97;;;16.23;;
25917;SDS011;13899;51.174;4.456;2023-04-06T14:17:43;20.47;;;18.37;;
25917;SDS011;13899;51.174;4.456;2023-04-06T14:20:09;21.33;;;18.20;;
25917;SDS011;13899;51.174;4.456;2023-04-06T14:22:39;19.55;;;17.30;;
25917;SDS011;13899;51.174;4.456;2023-04-06T14:25:06;20.95;;;17.88;;
25917;SDS011;13899;51.174;4.456;2023-04-06T14:27:32;19.53;;;17.53;;
25917;SDS011;13899;51.174;4.456;2023-04-06T14:29:57;20.13;;;18.10;;
25917;SDS011;13899;51.174;4.456;2023-04-06T14:32:23;19.67;;;17.57;;
25917;SDS011;13899;51.174;4.456;2023-04-06T14:37:19;20.27;;;16.90;;
25917;SDS011;13899;51.174;4.456;2023-04-06T14:39:46;21.80;;;18.13;;
25917;SDS011;13899;51.174;4.456;2023-04-06T14:42:12;14.70;;;13.35;;
25917;SDS011;13899;51.174;4.456;2023-04-06T14:44:41;20.23;;;18.00;;
25917;SDS011;13899;51.174;4.456;2023-04-06T14:47:15;20.60;;;18.10;;
25917;SDS011;13899;51.174;4.456;2023-04-06T14:49:46;21.10;;;17.25;;
25917;SDS011;13899;51.174;4.456;2023-04-06T14:52:22;21.80;;;17.60;;
25917;SDS011;13899;51.174;4.456;2023-04-06T14:54:48;19.80;;;17.83;;